ซานฟรานซิสโก, CA

01:14 PM PDT วัน กันยายน 01, 2015 (GMT -0700)
SOMA - Near Van Ness | | Change Station
CLOSE
Current Station
Personal Weather Stations
Location: San Francisco, CA
Elevation: 49 ft
Nearby Weather Stations

Elev 49 ft 37.77 °N, 122.42 °W | Updated 52 seconds ago

มีเมฆคลุมเป็นส่วนๆ
มีเมฆคลุมเป็นส่วนๆ
70.2 ฟาเรนไฮน์
Feels Like 74 ฟาเรนไฮน์
N
6.0
ลม ความผันแปร ลม from ทางทิศตะวันออกเฉียงใต้
Gusts 15.0 mph

วันนี้
High -- | Low -- ฟาเรนไฮน์
--% Chance of Precip.
Yesterday
High -- | Low -- ฟาเรนไฮน์
Precip. -- นิ้ว
6:39 AM 7:39 PM
ข้างแรม, 86% visible
ความดัน 29.89 นิ้ว
ทัศนวิสัย 10.0 ไมล์
เมฆ Few 1500 ft
ดัชนีความร้อน 74 ฟาเรนไฮน์
อุณหภูมิที่อากาศอาจจับตัวเป็นหยาดน้ำค้าง 60 ฟาเรนไฮน์
ความชื้น 69%
Rainfall 0.00 นิ้ว
Snow Depth Not available.
UV 9 out of 12
Pollen 6.90 out of 12
Air Quality Not available.
Flu Activity Not available.
METAR KSFO 011956Z 22009KT 10SM FEW015 23/12 A2989 RMK AO2 SLP120 T02330122
ความดัน 29.89 นิ้ว
ทัศนวิสัย 10.0 ไมล์
เมฆ Few 1500 ft
ดัชนีความร้อน 74 ฟาเรนไฮน์
อุณหภูมิที่อากาศอาจจับตัวเป็นหยาดน้ำค้าง 60 ฟาเรนไฮน์
ความชื้น 69%
Rainfall 0.00 นิ้ว
Snow Depth Not available.
UV 9 out of 12
Pollen 6.90 out of 12
Air Quality Not available.
Flu Activity Not available.
METAR KSFO 011956Z 22009KT 10SM FEW015 23/12 A2989 RMK AO2 SLP120 T02330122

10-Day Weather Forecast

×

Almanac

ดาราศาสตร์

Sep. 01, 2015 Rise Set
Actual Time
Civil Twilight
Nautical Twilight
Astronomical Twilight
Moon
Length Of Visible Light
ความยาวของวัน
Tomorrow will be .
, % of the Moon is Illuminated

Today's Extremes

State Highs State Lows

Community

WunderPhotos

Upload Photos

1,851,605 photos uploaded!

WunderBlogs® & News

Nearby

Air Quality

  Air Quality AQ Index Pollutant
Not available.

Snow Depth

Station Depth Elevation

Earthquake Activity

City Distance Mag. Time & Date
Minimum magnitude displayed is 2.5.

Coastal Water Temperatures

สถานที่ อุณหภูมิ

Stations

Nearby Weather Stations

Station Location Temp ลมหนาว อุณหภูมิที่อากาศอาจจับตัวเป็นหยาดน้ำค้าง ความชื้น ลม Precip. Elev ปรับปรุงล่าสุด Type